New Martinsville, West Virginia
Current Conditions -  °F | °C
As of 11:10 AM on Tuesday 21 Oct 2014 (Local Time) from KPKB Reporting Station
Overcast Overcast  
Wind Chill: 52°   Ceiling: 1100
Heat Index: 52°   Visibility: 7mi
Dew Point: 48°   Wind: 9mph
Humidity: 86%   Direction: 310°NW
Pressure: 29.94"   Gusts: NA
Location:  39.64°N, 80.86°W
Report Text: KPKB 211510Z 31008KT 7SM BKN011 OVC016 11/09 A2994 RMK AO2 CIG 008V013 T01110089
Loading
Personal Weather Stations






























Interactive Weather Map
Tropical Storm Tracking
New forecast layout! Learn more

10-Day Weather Forecast

Advertisements
Track Severe Weather on mobile